sensor_id;sensor_type;location;lat;lon;timestamp;P1;durP1;ratioP1;P2;durP2;ratioP2
32874;SDS011;40468;42.128;24.750;2023-06-26T00:00:38;9.48;;;4.82;;
32874;SDS011;40468;42.128;24.750;2023-06-26T00:02:10;11.85;;;5.40;;
32874;SDS011;40468;42.128;24.750;2023-06-26T00:03:42;11.18;;;5.93;;
32874;SDS011;40468;42.128;24.750;2023-06-26T00:05:14;9.95;;;5.32;;
32874;SDS011;40468;42.128;24.750;2023-06-26T00:06:46;9.32;;;5.82;;
32874;SDS011;40468;42.128;24.750;2023-06-26T00:08:18;10.98;;;5.95;;
32874;SDS011;40468;42.128;24.750;2023-06-26T00:09:50;11.20;;;5.93;;
32874;SDS011;40468;42.128;24.750;2023-06-26T00:11:21;10.48;;;5.38;;
32874;SDS011;40468;42.128;24.750;2023-06-26T00:12:54;8.98;;;5.70;;
32874;SDS011;40468;42.128;24.750;2023-06-26T00:15:58;12.80;;;5.70;;
32874;SDS011;40468;42.128;24.750;2023-06-26T00:17:33;11.65;;;5.93;;
32874;SDS011;40468;42.128;24.750;2023-06-26T00:19:07;12.38;;;5.60;;
32874;SDS011;40468;42.128;24.750;2023-06-26T00:20:39;11.75;;;5.40;;
32874;SDS011;40468;42.128;24.750;2023-06-26T00:22:11;10.35;;;6.63;;
32874;SDS011;40468;42.128;24.750;2023-06-26T00:23:43;9.40;;;5.35;;
32874;SDS011;40468;42.128;24.750;2023-06-26T00:25:15;10.43;;;5.20;;
32874;SDS011;40468;42.128;24.750;2023-06-26T00:26:47;11.32;;;5.60;;
32874;SDS011;40468;42.128;24.750;2023-06-26T00:28:20;12.85;;;5.25;;
32874;SDS011;40468;42.128;24.750;2023-06-26T00:31:23;9.38;;;5.72;;
32874;SDS011;40468;42.128;24.750;2023-06-26T00:32:55;7.75;;;4.70;;
32874;SDS011;40468;42.128;24.750;2023-06-26T00:34:27;10.10;;;5.07;;
32874;SDS011;40468;42.128;24.750;2023-06-26T00:35:59;10.98;;;5.95;;
32874;SDS011;40468;42.128;24.750;2023-06-26T00:37:30;10.65;;;5.95;;
32874;SDS011;40468;42.128;24.750;2023-06-26T00:39:02;10.55;;;5.82;;
32874;SDS011;40468;42.128;24.750;2023-06-26T00:40:34;13.60;;;5.38;;
32874;SDS011;40468;42.128;24.750;2023-06-26T00:42:06;9.27;;;6.07;;
32874;SDS011;40468;42.128;24.750;2023-06-26T00:43:40;11.30;;;5.45;;
32874;SDS011;40468;42.128;24.750;2023-06-26T00:45:12;11.35;;;5.32;;
32874;SDS011;40468;42.128;24.750;2023-06-26T00:46:44;8.75;;;4.95;;
32874;SDS011;40468;42.128;24.750;2023-06-26T00:48:17;9.52;;;5.28;;
32874;SDS011;40468;42.128;24.750;2023-06-26T00:49:49;12.30;;;5.50;;
32874;SDS011;40468;42.128;24.750;2023-06-26T00:51:22;8.07;;;4.90;;
32874;SDS011;40468;42.128;24.750;2023-06-26T00:52:53;10.88;;;5.45;;
32874;SDS011;40468;42.128;24.750;2023-06-26T00:54:30;11.77;;;5.28;;
32874;SDS011;40468;42.128;24.750;2023-06-26T00:56:03;11.20;;;6.00;;
32874;SDS011;40468;42.128;24.750;2023-06-26T00:57:36;11.48;;;5.28;;
32874;SDS011;40468;42.128;24.750;2023-06-26T00:59:09;15.75;;;5.50;;
32874;SDS011;40468;42.128;24.750;2023-06-26T01:00:41;12.43;;;6.13;;
32874;SDS011;40468;42.128;24.750;2023-06-26T01:02:15;12.15;;;5.50;;
32874;SDS011;40468;42.128;24.750;2023-06-26T01:03:50;9.65;;;5.78;;
32874;SDS011;40468;42.128;24.750;2023-06-26T01:05:21;10.40;;;6.25;;
32874;SDS011;40468;42.128;24.750;2023-06-26T01:06:53;10.45;;;6.03;;
32874;SDS011;40468;42.128;24.750;2023-06-26T01:08:27;12.32;;;6.22;;
32874;SDS011;40468;42.128;24.750;2023-06-26T01:10:00;15.73;;;5.70;;
32874;SDS011;40468;42.128;24.750;2023-06-26T01:11:32;12.57;;;5.97;;
32874;SDS011;40468;42.128;24.750;2023-06-26T01:13:03;11.70;;;5.82;;
32874;SDS011;40468;42.128;24.750;2023-06-26T01:14:37;11.43;;;6.63;;
32874;SDS011;40468;42.128;24.750;2023-06-26T01:16:09;9.90;;;5.82;;
32874;SDS011;40468;42.128;24.750;2023-06-26T01:17:42;11.05;;;6.18;;
32874;SDS011;40468;42.128;24.750;2023-06-26T01:19:17;13.45;;;6.47;;
32874;SDS011;40468;42.128;24.750;2023-06-26T01:20:55;10.68;;;6.68;;
32874;SDS011;40468;42.128;24.750;2023-06-26T01:22:31;10.55;;;6.47;;
32874;SDS011;40468;42.128;24.750;2023-06-26T01:24:15;13.95;;;6.63;;
32874;SDS011;40468;42.128;24.750;2023-06-26T01:27:43;14.88;;;6.10;;
32874;SDS011;40468;42.128;24.750;2023-06-26T01:30:49;11.25;;;6.20;;
32874;SDS011;40468;42.128;24.750;2023-06-26T01:32:22;11.00;;;6.68;;
32874;SDS011;40468;42.128;24.750;2023-06-26T01:33:55;11.05;;;6.55;;
32874;SDS011;40468;42.128;24.750;2023-06-26T01:35:28;12.52;;;7.07;;
32874;SDS011;40468;42.128;24.750;2023-06-26T01:37:00;14.30;;;6.78;;
32874;SDS011;40468;42.128;24.750;2023-06-26T01:38:32;11.02;;;6.22;;
32874;SDS011;40468;42.128;24.750;2023-06-26T01:40:05;14.40;;;7.32;;
32874;SDS011;40468;42.128;24.750;2023-06-26T01:43:15;16.33;;;6.38;;
32874;SDS011;40468;42.128;24.750;2023-06-26T01:44:55;12.00;;;6.85;;
32874;SDS011;40468;42.128;24.750;2023-06-26T01:46:27;14.02;;;7.20;;
32874;SDS011;40468;42.128;24.750;2023-06-26T01:48:07;11.07;;;6.80;;
32874;SDS011;40468;42.128;24.750;2023-06-26T01:49:45;15.35;;;6.82;;
32874;SDS011;40468;42.128;24.750;2023-06-26T01:51:19;14.48;;;7.05;;
32874;SDS011;40468;42.128;24.750;2023-06-26T01:52:57;17.83;;;7.78;;
32874;SDS011;40468;42.128;24.750;2023-06-26T01:54:34;14.80;;;7.32;;
32874;SDS011;40468;42.128;24.750;2023-06-26T01:56:08;17.50;;;7.43;;
32874;SDS011;40468;42.128;24.750;2023-06-26T01:57:47;15.73;;;8.25;;
32874;SDS011;40468;42.128;24.750;2023-06-26T01:59:19;12.57;;;7.72;;
32874;SDS011;40468;42.128;24.750;2023-06-26T02:00:53;14.77;;;7.18;;
32874;SDS011;40468;42.128;24.750;2023-06-26T02:02:25;12.13;;;7.43;;
32874;SDS011;40468;42.128;24.750;2023-06-26T02:03:59;13.57;;;7.18;;
32874;SDS011;40468;42.128;24.750;2023-06-26T02:05:30;11.95;;;7.15;;
32874;SDS011;40468;42.128;24.750;2023-06-26T02:07:02;9.75;;;6.25;;
32874;SDS011;40468;42.128;24.750;2023-06-26T02:08:33;13.23;;;7.50;;
32874;SDS011;40468;42.128;24.750;2023-06-26T02:10:17;15.68;;;8.10;;
32874;SDS011;40468;42.128;24.750;2023-06-26T02:11:49;12.70;;;7.50;;
32874;SDS011;40468;42.128;24.750;2023-06-26T02:13:21;17.27;;;8.25;;
32874;SDS011;40468;42.128;24.750;2023-06-26T02:16:25;15.65;;;7.93;;
32874;SDS011;40468;42.128;24.750;2023-06-26T02:17:57;15.60;;;8.00;;
32874;SDS011;40468;42.128;24.750;2023-06-26T02:19:29;15.65;;;8.13;;
32874;SDS011;40468;42.128;24.750;2023-06-26T02:21:00;16.10;;;8.52;;
32874;SDS011;40468;42.128;24.750;2023-06-26T02:22:34;14.75;;;7.90;;
32874;SDS011;40468;42.128;24.750;2023-06-26T02:24:06;17.08;;;7.68;;
32874;SDS011;40468;42.128;24.750;2023-06-26T02:25:38;15.15;;;7.45;;
32874;SDS011;40468;42.128;24.750;2023-06-26T02:27:10;12.43;;;8.00;;
32874;SDS011;40468;42.128;24.750;2023-06-26T02:28:43;13.25;;;8.43;;
32874;SDS011;40468;42.128;24.750;2023-06-26T02:30:15;19.45;;;9.35;;
32874;SDS011;40468;42.128;24.750;2023-06-26T02:31:47;14.80;;;8.43;;
32874;SDS011;40468;42.128;24.750;2023-06-26T02:33:19;16.40;;;8.55;;
32874;SDS011;40468;42.128;24.750;2023-06-26T02:34:51;14.15;;;8.25;;
32874;SDS011;40468;42.128;24.750;2023-06-26T02:36:24;15.80;;;8.88;;
32874;SDS011;40468;42.128;24.750;2023-06-26T02:37:56;18.70;;;9.00;;
32874;SDS011;40468;42.128;24.750;2023-06-26T02:39:28;14.35;;;7.63;;
32874;SDS011;40468;42.128;24.750;2023-06-26T02:40:59;15.55;;;8.30;;
32874;SDS011;40468;42.128;24.750;2023-06-26T02:42:31;15.02;;;8.48;;
32874;SDS011;40468;42.128;24.750;2023-06-26T02:44:05;19.00;;;10.45;;
32874;SDS011;40468;42.128;24.750;2023-06-26T02:45:37;15.77;;;8.38;;
32874;SDS011;40468;42.128;24.750;2023-06-26T02:47:08;15.40;;;8.75;;
32874;SDS011;40468;42.128;24.750;2023-06-26T02:48:40;18.75;;;9.13;;
32874;SDS011;40468;42.128;24.750;2023-06-26T02:50:11;14.75;;;9.25;;
32874;SDS011;40468;42.128;24.750;2023-06-26T02:51:42;19.25;;;8.55;;
32874;SDS011;40468;42.128;24.750;2023-06-26T02:53:14;12.93;;;8.20;;
32874;SDS011;40468;42.128;24.750;2023-06-26T02:54:46;14.73;;;9.13;;
32874;SDS011;40468;42.128;24.750;2023-06-26T02:56:18;19.45;;;9.25;;
32874;SDS011;40468;42.128;24.750;2023-06-26T02:57:49;14.88;;;8.43;;
32874;SDS011;40468;42.128;24.750;2023-06-26T02:59:23;19.95;;;9.45;;
32874;SDS011;40468;42.128;24.750;2023-06-26T03:00:55;16.52;;;8.63;;
32874;SDS011;40468;42.128;24.750;2023-06-26T03:02:26;19.63;;;8.95;;
32874;SDS011;40468;42.128;24.750;2023-06-26T03:03:58;15.70;;;9.32;;
32874;SDS011;40468;42.128;24.750;2023-06-26T03:05:30;15.77;;;8.48;;
32874;SDS011;40468;42.128;24.750;2023-06-26T03:07:02;14.73;;;8.27;;
32874;SDS011;40468;42.128;24.750;2023-06-26T03:08:36;16.88;;;8.50;;
32874;SDS011;40468;42.128;24.750;2023-06-26T03:10:08;16.55;;;8.75;;
32874;SDS011;40468;42.128;24.750;2023-06-26T03:11:40;16.92;;;7.97;;
32874;SDS011;40468;42.128;24.750;2023-06-26T03:13:12;16.48;;;8.90;;
32874;SDS011;40468;42.128;24.750;2023-06-26T03:14:46;14.50;;;8.65;;
32874;SDS011;40468;42.128;24.750;2023-06-26T03:17:49;26.42;;;8.38;;
32874;SDS011;40468;42.128;24.750;2023-06-26T03:19:21;14.95;;;9.68;;
32874;SDS011;40468;42.128;24.750;2023-06-26T03:20:53;16.23;;;9.07;;
32874;SDS011;40468;42.128;24.750;2023-06-26T03:22:26;13.20;;;8.75;;
32874;SDS011;40468;42.128;24.750;2023-06-26T03:23:58;14.52;;;8.75;;
32874;SDS011;40468;42.128;24.750;2023-06-26T03:25:30;17.63;;;9.57;;
32874;SDS011;40468;42.128;24.750;2023-06-26T03:27:02;15.57;;;9.93;;
32874;SDS011;40468;42.128;24.750;2023-06-26T03:28:34;15.43;;;9.07;;
32874;SDS011;40468;42.128;24.750;2023-06-26T03:30:08;15.32;;;8.85;;
32874;SDS011;40468;42.128;24.750;2023-06-26T03:31:41;24.10;;;9.38;;
32874;SDS011;40468;42.128;24.750;2023-06-26T03:33:12;15.40;;;9.25;;
32874;SDS011;40468;42.128;24.750;2023-06-26T03:34:44;18.75;;;9.50;;
32874;SDS011;40468;42.128;24.750;2023-06-26T03:36:16;17.05;;;9.23;;
32874;SDS011;40468;42.128;24.750;2023-06-26T03:37:48;16.63;;;9.98;;
32874;SDS011;40468;42.128;24.750;2023-06-26T03:39:20;13.20;;;8.10;;
32874;SDS011;40468;42.128;24.750;2023-06-26T03:40:52;15.77;;;8.90;;
32874;SDS011;40468;42.128;24.750;2023-06-26T03:42:24;16.73;;;9.50;;
32874;SDS011;40468;42.128;24.750;2023-06-26T03:43:56;14.35;;;8.65;;
32874;SDS011;40468;42.128;24.750;2023-06-26T03:45:29;17.05;;;8.68;;
32874;SDS011;40468;42.128;24.750;2023-06-26T03:48:33;14.70;;;8.50;;
32874;SDS011;40468;42.128;24.750;2023-06-26T03:50:05;16.88;;;8.30;;
32874;SDS011;40468;42.128;24.750;2023-06-26T03:51:37;20.75;;;8.60;;
32874;SDS011;40468;42.128;24.750;2023-06-26T03:53:09;14.60;;;8.77;;
32874;SDS011;40468;42.128;24.750;2023-06-26T03:54:41;18.40;;;9.30;;
32874;SDS011;40468;42.128;24.750;2023-06-26T03:56:13;17.58;;;8.65;;
32874;SDS011;40468;42.128;24.750;2023-06-26T03:57:45;16.13;;;9.15;;
32874;SDS011;40468;42.128;24.750;2023-06-26T03:59:17;18.48;;;9.27;;
32874;SDS011;40468;42.128;24.750;2023-06-26T04:00:50;18.50;;;9.02;;
32874;SDS011;40468;42.128;24.750;2023-06-26T04:02:23;15.35;;;8.85;;
32874;SDS011;40468;42.128;24.750;2023-06-26T04:03:55;17.27;;;9.52;;
32874;SDS011;40468;42.128;24.750;2023-06-26T04:05:26;17.38;;;9.00;;
32874;SDS011;40468;42.128;24.750;2023-06-26T04:06:58;20.20;;;9.35;;
32874;SDS011;40468;42.128;24.750;2023-06-26T04:08:30;18.63;;;9.25;;
32874;SDS011;40468;42.128;24.750;2023-06-26T04:10:02;17.52;;;9.60;;
32874;SDS011;40468;42.128;24.750;2023-06-26T04:11:34;19.85;;;9.77;;
32874;SDS011;40468;42.128;24.750;2023-06-26T04:13:06;17.40;;;9.07;;
32874;SDS011;40468;42.128;24.750;2023-06-26T04:14:39;16.73;;;9.07;;
32874;SDS011;40468;42.128;24.750;2023-06-26T04:17:59;18.20;;;9.65;;
32874;SDS011;40468;42.128;24.750;2023-06-26T04:19:30;16.13;;;10.05;;
32874;SDS011;40468;42.128;24.750;2023-06-26T04:21:06;26.30;;;18.13;;
32874;SDS011;40468;42.128;24.750;2023-06-26T04:22:41;16.75;;;9.13;;
32874;SDS011;40468;42.128;24.750;2023-06-26T04:24:13;28.63;;;11.50;;
32874;SDS011;40468;42.128;24.750;2023-06-26T04:25:45;12.77;;;8.63;;
32874;SDS011;40468;42.128;24.750;2023-06-26T04:27:17;17.90;;;8.60;;
32874;SDS011;40468;42.128;24.750;2023-06-26T04:28:49;18.67;;;9.50;;
32874;SDS011;40468;42.128;24.750;2023-06-26T04:30:21;19.40;;;9.63;;
32874;SDS011;40468;42.128;24.750;2023-06-26T04:31:55;25.23;;;9.65;;
32874;SDS011;40468;42.128;24.750;2023-06-26T04:33:28;17.75;;;9.77;;
32874;SDS011;40468;42.128;24.750;2023-06-26T04:35:00;17.63;;;10.02;;
32874;SDS011;40468;42.128;24.750;2023-06-26T04:36:33;18.70;;;9.77;;
32874;SDS011;40468;42.128;24.750;2023-06-26T04:38:09;15.82;;;9.90;;
32874;SDS011;40468;42.128;24.750;2023-06-26T04:39:41;15.50;;;10.93;;
32874;SDS011;40468;42.128;24.750;2023-06-26T04:41:13;20.55;;;9.43;;
32874;SDS011;40468;42.128;24.750;2023-06-26T04:42:45;16.40;;;9.57;;
32874;SDS011;40468;42.128;24.750;2023-06-26T04:44:17;14.60;;;9.57;;
32874;SDS011;40468;42.128;24.750;2023-06-26T04:45:47;20.42;;;10.68;;
32874;SDS011;40468;42.128;24.750;2023-06-26T04:47:21;18.20;;;9.52;;
32874;SDS011;40468;42.128;24.750;2023-06-26T04:50:23;18.55;;;8.63;;
32874;SDS011;40468;42.128;24.750;2023-06-26T04:51:55;18.13;;;9.45;;
32874;SDS011;40468;42.128;24.750;2023-06-26T04:53:30;17.60;;;10.90;;
32874;SDS011;40468;42.128;24.750;2023-06-26T04:55:02;17.23;;;9.65;;
32874;SDS011;40468;42.128;24.750;2023-06-26T04:56:34;15.90;;;9.40;;
32874;SDS011;40468;42.128;24.750;2023-06-26T04:58:06;15.65;;;10.30;;
32874;SDS011;40468;42.128;24.750;2023-06-26T04:59:38;14.13;;;9.52;;
32874;SDS011;40468;42.128;24.750;2023-06-26T05:01:11;14.77;;;9.23;;
32874;SDS011;40468;42.128;24.750;2023-06-26T05:02:45;16.55;;;9.07;;
32874;SDS011;40468;42.128;24.750;2023-06-26T05:04:17;19.98;;;10.45;;
32874;SDS011;40468;42.128;24.750;2023-06-26T05:05:49;12.95;;;8.68;;
32874;SDS011;40468;42.128;24.750;2023-06-26T05:07:23;16.63;;;9.70;;
32874;SDS011;40468;42.128;24.750;2023-06-26T05:08:54;15.82;;;9.50;;
32874;SDS011;40468;42.128;24.750;2023-06-26T05:10:26;16.83;;;8.57;;
32874;SDS011;40468;42.128;24.750;2023-06-26T05:11:57;17.27;;;8.77;;
32874;SDS011;40468;42.128;24.750;2023-06-26T05:13:29;15.20;;;9.40;;
32874;SDS011;40468;42.128;24.750;2023-06-26T05:15:01;20.70;;;9.80;;
32874;SDS011;40468;42.128;24.750;2023-06-26T05:16:34;16.52;;;9.25;;
32874;SDS011;40468;42.128;24.750;2023-06-26T05:18:07;15.27;;;8.52;;
32874;SDS011;40468;42.128;24.750;2023-06-26T05:19:38;19.13;;;9.70;;
32874;SDS011;40468;42.128;24.750;2023-06-26T05:21:10;14.40;;;9.15;;
32874;SDS011;40468;42.128;24.750;2023-06-26T05:22:42;13.43;;;9.17;;
32874;SDS011;40468;42.128;24.750;2023-06-26T05:24:15;16.02;;;9.00;;
32874;SDS011;40468;42.128;24.750;2023-06-26T05:25:47;14.83;;;8.87;;
32874;SDS011;40468;42.128;24.750;2023-06-26T05:27:20;14.60;;;9.18;;
32874;SDS011;40468;42.128;24.750;2023-06-26T05:28:53;16.40;;;9.10;;
32874;SDS011;40468;42.128;24.750;2023-06-26T05:30:26;17.48;;;8.93;;
32874;SDS011;40468;42.128;24.750;2023-06-26T05:31:59;22.00;;;9.45;;
32874;SDS011;40468;42.128;24.750;2023-06-26T05:33:36;17.67;;;9.05;;
32874;SDS011;40468;42.128;24.750;2023-06-26T05:35:12;14.60;;;8.48;;
32874;SDS011;40468;42.128;24.750;2023-06-26T05:36:45;15.48;;;8.77;;
32874;SDS011;40468;42.128;24.750;2023-06-26T05:38:20;14.18;;;8.25;;
32874;SDS011;40468;42.128;24.750;2023-06-26T05:39:53;15.15;;;8.68;;
32874;SDS011;40468;42.128;24.750;2023-06-26T05:41:26;17.42;;;8.65;;
32874;SDS011;40468;42.128;24.750;2023-06-26T05:44:32;16.60;;;8.18;;
32874;SDS011;40468;42.128;24.750;2023-06-26T05:46:05;13.70;;;8.60;;
32874;SDS011;40468;42.128;24.750;2023-06-26T05:47:37;15.55;;;7.85;;
32874;SDS011;40468;42.128;24.750;2023-06-26T05:49:10;12.10;;;7.47;;
32874;SDS011;40468;42.128;24.750;2023-06-26T05:50:42;16.27;;;8.32;;
32874;SDS011;40468;42.128;24.750;2023-06-26T05:52:15;11.20;;;7.47;;
32874;SDS011;40468;42.128;24.750;2023-06-26T05:53:48;11.20;;;8.07;;
32874;SDS011;40468;42.128;24.750;2023-06-26T05:55:26;14.25;;;7.28;;
32874;SDS011;40468;42.128;24.750;2023-06-26T05:57:52;12.68;;;7.75;;
32874;SDS011;40468;42.128;24.750;2023-06-26T06:01:39;9.90;;;6.97;;
32874;SDS011;40468;42.128;24.750;2023-06-26T06:05:16;11.45;;;7.68;;
32874;SDS011;40468;42.128;24.750;2023-06-26T06:06:48;15.98;;;8.07;;
32874;SDS011;40468;42.128;24.750;2023-06-26T06:08:21;13.67;;;8.40;;
32874;SDS011;40468;42.128;24.750;2023-06-26T06:09:53;14.30;;;7.20;;
32874;SDS011;40468;42.128;24.750;2023-06-26T06:11:25;15.43;;;7.65;;
32874;SDS011;40468;42.128;24.750;2023-06-26T06:12:57;12.40;;;7.57;;
32874;SDS011;40468;42.128;24.750;2023-06-26T06:14:30;11.27;;;7.20;;
32874;SDS011;40468;42.128;24.750;2023-06-26T06:16:05;11.73;;;6.97;;
32874;SDS011;40468;42.128;24.750;2023-06-26T06:17:38;12.13;;;6.55;;
32874;SDS011;40468;42.128;24.750;2023-06-26T06:19:11;10.93;;;6.95;;
32874;SDS011;40468;42.128;24.750;2023-06-26T06:20:45;12.23;;;7.03;;
32874;SDS011;40468;42.128;24.750;2023-06-26T06:22:20;10.43;;;7.25;;
32874;SDS011;40468;42.128;24.750;2023-06-26T06:23:52;13.73;;;6.90;;
32874;SDS011;40468;42.128;24.750;2023-06-26T06:25:24;16.55;;;7.82;;
32874;SDS011;40468;42.128;24.750;2023-06-26T06:26:56;16.90;;;7.13;;
32874;SDS011;40468;42.128;24.750;2023-06-26T06:28:28;11.10;;;6.23;;
32874;SDS011;40468;42.128;24.750;2023-06-26T06:30:01;12.90;;;7.23;;
32874;SDS011;40468;42.128;24.750;2023-06-26T06:31:34;13.98;;;6.97;;
32874;SDS011;40468;42.128;24.750;2023-06-26T06:33:06;11.63;;;7.40;;
32874;SDS011;40468;42.128;24.750;2023-06-26T06:34:38;11.83;;;6.63;;
32874;SDS011;40468;42.128;24.750;2023-06-26T06:36:11;14.07;;;7.60;;
32874;SDS011;40468;42.128;24.750;2023-06-26T06:37:44;12.10;;;6.93;;
32874;SDS011;40468;42.128;24.750;2023-06-26T06:39:16;10.23;;;7.30;;
32874;SDS011;40468;42.128;24.750;2023-06-26T06:40:48;13.70;;;7.05;;
32874;SDS011;40468;42.128;24.750;2023-06-26T06:42:20;11.55;;;6.30;;
32874;SDS011;40468;42.128;24.750;2023-06-26T06:43:52;11.63;;;6.40;;
32874;SDS011;40468;42.128;24.750;2023-06-26T06:45:23;10.20;;;6.50;;
32874;SDS011;40468;42.128;24.750;2023-06-26T06:46:56;13.18;;;7.00;;
32874;SDS011;40468;42.128;24.750;2023-06-26T06:48:28;15.57;;;6.50;;
32874;SDS011;40468;42.128;24.750;2023-06-26T06:50:00;17.67;;;7.13;;
32874;SDS011;40468;42.128;24.750;2023-06-26T06:51:39;9.73;;;7.13;;
32874;SDS011;40468;42.128;24.750;2023-06-26T06:53:12;14.63;;;7.05;;
32874;SDS011;40468;42.128;24.750;2023-06-26T06:54:50;10.48;;;6.72;;
32874;SDS011;40468;42.128;24.750;2023-06-26T06:56:24;13.15;;;6.93;;
32874;SDS011;40468;42.128;24.750;2023-06-26T06:57:56;9.85;;;6.47;;
32874;SDS011;40468;42.128;24.750;2023-06-26T06:59:28;12.75;;;6.32;;
32874;SDS011;40468;42.128;24.750;2023-06-26T07:01:02;10.02;;;5.75;;
32874;SDS011;40468;42.128;24.750;2023-06-26T07:02:34;13.20;;;6.47;;
32874;SDS011;40468;42.128;24.750;2023-06-26T07:04:07;11.23;;;6.07;;
32874;SDS011;40468;42.128;24.750;2023-06-26T07:05:40;13.30;;;6.47;;
32874;SDS011;40468;42.128;24.750;2023-06-26T07:07:17;13.32;;;6.28;;
32874;SDS011;40468;42.128;24.750;2023-06-26T07:08:50;10.90;;;5.30;;
32874;SDS011;40468;42.128;24.750;2023-06-26T07:10:22;9.90;;;6.22;;
32874;SDS011;40468;42.128;24.750;2023-06-26T07:11:55;12.73;;;5.78;;
32874;SDS011;40468;42.128;24.750;2023-06-26T07:13:28;14.30;;;5.60;;
32874;SDS011;40468;42.128;24.750;2023-06-26T07:15:01;10.88;;;4.80;;
32874;SDS011;40468;42.128;24.750;2023-06-26T07:16:34;14.00;;;5.82;;
32874;SDS011;40468;42.128;24.750;2023-06-26T07:18:07;9.73;;;5.37;;
32874;SDS011;40468;42.128;24.750;2023-06-26T07:19:39;10.15;;;5.47;;
32874;SDS011;40468;42.128;24.750;2023-06-26T07:21:11;7.35;;;4.70;;
32874;SDS011;40468;42.128;24.750;2023-06-26T07:22:45;7.70;;;4.97;;
32874;SDS011;40468;42.128;24.750;2023-06-26T07:24:20;7.82;;;4.65;;
32874;SDS011;40468;42.128;24.750;2023-06-26T07:25:56;9.27;;;5.25;;
32874;SDS011;40468;42.128;24.750;2023-06-26T07:27:28;9.20;;;4.72;;
32874;SDS011;40468;42.128;24.750;2023-06-26T07:29:01;9.48;;;4.63;;
32874;SDS011;40468;42.128;24.750;2023-06-26T07:30:34;7.40;;;4.68;;
32874;SDS011;40468;42.128;24.750;2023-06-26T07:32:06;10.30;;;5.47;;
32874;SDS011;40468;42.128;24.750;2023-06-26T07:33:38;7.95;;;5.13;;
32874;SDS011;40468;42.128;24.750;2023-06-26T07:35:11;10.10;;;4.95;;
32874;SDS011;40468;42.128;24.750;2023-06-26T07:36:43;11.68;;;5.47;;
32874;SDS011;40468;42.128;24.750;2023-06-26T07:38:16;12.77;;;4.45;;
32874;SDS011;40468;42.128;24.750;2023-06-26T07:41:20;11.38;;;5.32;;
32874;SDS011;40468;42.128;24.750;2023-06-26T07:42:52;9.02;;;4.70;;
32874;SDS011;40468;42.128;24.750;2023-06-26T07:44:25;10.27;;;4.47;;
32874;SDS011;40468;42.128;24.750;2023-06-26T07:45:57;8.88;;;4.93;;
32874;SDS011;40468;42.128;24.750;2023-06-26T07:47:29;14.43;;;5.40;;
32874;SDS011;40468;42.128;24.750;2023-06-26T07:49:01;9.52;;;4.43;;
32874;SDS011;40468;42.128;24.750;2023-06-26T07:50:33;12.32;;;4.97;;
32874;SDS011;40468;42.128;24.750;2023-06-26T07:52:06;10.27;;;4.72;;
32874;SDS011;40468;42.128;24.750;2023-06-26T07:53:41;6.43;;;4.20;;
32874;SDS011;40468;42.128;24.750;2023-06-26T07:55:14;9.07;;;4.30;;
32874;SDS011;40468;42.128;24.750;2023-06-26T07:56:52;9.98;;;4.28;;
32874;SDS011;40468;42.128;24.750;2023-06-26T07:58:26;7.35;;;4.20;;
32874;SDS011;40468;42.128;24.750;2023-06-26T07:59:58;10.00;;;3.95;;
32874;SDS011;40468;42.128;24.750;2023-06-26T08:01:30;7.28;;;4.25;;
32874;SDS011;40468;42.128;24.750;2023-06-26T08:03:03;6.43;;;4.10;;
32874;SDS011;40468;42.128;24.750;2023-06-26T08:04:35;6.00;;;4.07;;
32874;SDS011;40468;42.128;24.750;2023-06-26T08:06:07;5.88;;;4.30;;
32874;SDS011;40468;42.128;24.750;2023-06-26T08:07:39;6.70;;;4.07;;
32874;SDS011;40468;42.128;24.750;2023-06-26T08:09:13;5.53;;;3.90;;
32874;SDS011;40468;42.128;24.750;2023-06-26T08:10:45;11.75;;;4.75;;
32874;SDS011;40468;42.128;24.750;2023-06-26T08:12:17;9.63;;;4.55;;
32874;SDS011;40468;42.128;24.750;2023-06-26T08:13:49;11.75;;;4.03;;
32874;SDS011;40468;42.128;24.750;2023-06-26T08:15:21;10.80;;;4.05;;
32874;SDS011;40468;42.128;24.750;2023-06-26T08:16:53;7.25;;;3.95;;
32874;SDS011;40468;42.128;24.750;2023-06-26T08:18:26;9.40;;;4.90;;
32874;SDS011;40468;42.128;24.750;2023-06-26T08:19:58;7.47;;;4.97;;
32874;SDS011;40468;42.128;24.750;2023-06-26T08:21:30;7.32;;;4.60;;
32874;SDS011;40468;42.128;24.750;2023-06-26T08:23:03;9.35;;;4.38;;
32874;SDS011;40468;42.128;24.750;2023-06-26T08:24:37;26.73;;;18.63;;
32874;SDS011;40468;42.128;24.750;2023-06-26T08:26:09;21.33;;;11.88;;
32874;SDS011;40468;42.128;24.750;2023-06-26T08:27:47;8.98;;;6.28;;
32874;SDS011;40468;42.128;24.750;2023-06-26T08:29:22;15.15;;;5.40;;
32874;SDS011;40468;42.128;24.750;2023-06-26T08:30:55;8.52;;;5.22;;
32874;SDS011;40468;42.128;24.750;2023-06-26T08:32:26;10.63;;;5.03;;
32874;SDS011;40468;42.128;24.750;2023-06-26T08:33:58;11.60;;;5.28;;
32874;SDS011;40468;42.128;24.750;2023-06-26T08:35:30;11.63;;;5.85;;
32874;SDS011;40468;42.128;24.750;2023-06-26T08:37:03;12.20;;;6.35;;
32874;SDS011;40468;42.128;24.750;2023-06-26T08:38:35;11.07;;;6.20;;
32874;SDS011;40468;42.128;24.750;2023-06-26T08:40:10;10.30;;;5.50;;
32874;SDS011;40468;42.128;24.750;2023-06-26T08:41:43;11.35;;;5.70;;
32874;SDS011;40468;42.128;24.750;2023-06-26T08:43:15;9.25;;;5.75;;
32874;SDS011;40468;42.128;24.750;2023-06-26T08:44:47;10.50;;;6.05;;
32874;SDS011;40468;42.128;24.750;2023-06-26T08:46:19;10.15;;;5.95;;
32874;SDS011;40468;42.128;24.750;2023-06-26T08:47:51;9.38;;;5.97;;
32874;SDS011;40468;42.128;24.750;2023-06-26T08:49:28;8.90;;;5.00;;
32874;SDS011;40468;42.128;24.750;2023-06-26T08:51:11;9.20;;;5.43;;
32874;SDS011;40468;42.128;24.750;2023-06-26T08:52:49;6.97;;;4.97;;
32874;SDS011;40468;42.128;24.750;2023-06-26T08:54:33;9.10;;;5.55;;
32874;SDS011;40468;42.128;24.750;2023-06-26T08:56:09;11.27;;;6.07;;
32874;SDS011;40468;42.128;24.750;2023-06-26T08:57:46;12.70;;;5.80;;
32874;SDS011;40468;42.128;24.750;2023-06-26T08:59:18;9.35;;;5.65;;
32874;SDS011;40468;42.128;24.750;2023-06-26T09:00:52;11.85;;;5.32;;
32874;SDS011;40468;42.128;24.750;2023-06-26T09:02:28;11.45;;;5.43;;
32874;SDS011;40468;42.128;24.750;2023-06-26T09:04:04;11.80;;;6.07;;
32874;SDS011;40468;42.128;24.750;2023-06-26T09:05:39;8.18;;;5.25;;
32874;SDS011;40468;42.128;24.750;2023-06-26T09:07:11;8.50;;;5.85;;
32874;SDS011;40468;42.128;24.750;2023-06-26T09:08:43;6.93;;;5.00;;
32874;SDS011;40468;42.128;24.750;2023-06-26T09:10:15;10.45;;;5.35;;
32874;SDS011;40468;42.128;24.750;2023-06-26T09:11:49;8.57;;;5.60;;
32874;SDS011;40468;42.128;24.750;2023-06-26T09:14:53;9.40;;;5.07;;
32874;SDS011;40468;42.128;24.750;2023-06-26T09:17:57;9.45;;;5.22;;
32874;SDS011;40468;42.128;24.750;2023-06-26T09:19:29;8.48;;;4.65;;
32874;SDS011;40468;42.128;24.750;2023-06-26T09:21:05;7.05;;;4.82;;
32874;SDS011;40468;42.128;24.750;2023-06-26T09:22:40;13.10;;;4.78;;
32874;SDS011;40468;42.128;24.750;2023-06-26T09:24:13;6.05;;;4.00;;
32874;SDS011;40468;42.128;24.750;2023-06-26T09:25:46;11.85;;;4.82;;
32874;SDS011;40468;42.128;24.750;2023-06-26T09:27:20;11.48;;;4.95;;
32874;SDS011;40468;42.128;24.750;2023-06-26T09:28:52;7.28;;;4.35;;
32874;SDS011;40468;42.128;24.750;2023-06-26T09:30:25;7.47;;;4.82;;
32874;SDS011;40468;42.128;24.750;2023-06-26T09:31:57;9.00;;;5.35;;